Time;durP1;ratioP1;P1;durP2;ratioP2;P2;SDS_P1;SDS_P2;PMS_P1;PMS_P2;Temp;Humidity;BMP_temperature;BMP_pressure;BME280_temperature;BME280_humidity;BME280_pressure;Samples;Min_cycle;Max_cycle;Signal;HPM_P1;HPM_P2
2022/07/28 00:02:19;;;;;;;1.13;0.50;;;16.40;72.30;;;;;;5093677;28;20032;-61
2022/07/28 00:04:45;;;;;;;2.35;0.50;;;16.30;72.60;;;;;;5077067;28;20036;-61
2022/07/28 00:07:10;;;;;;;1.70;0.60;;;16.30;72.80;;;;;;5089268;28;20075;-61
2022/07/28 00:09:37;;;;;;;2.72;0.55;;;16.20;72.80;;;;;;5087221;28;20492;-61
2022/07/28 00:12:03;;;;;;;2.67;0.50;;;16.20;73.20;;;;;;5077797;28;20096;-62
2022/07/28 00:14:29;;;;;;;3.88;0.55;;;16.20;73.40;;;;;;5075758;28;20038;-61
2022/07/28 00:16:54;;;;;;;1.27;0.40;;;16.20;73.50;;;;;;5081222;28;20097;-61
2022/07/28 00:19:20;;;;;;;1.05;0.40;;;16.10;73.50;;;;;;5077371;28;20025;-62
2022/07/28 00:21:45;;;;;;;1.40;0.60;;;16.10;73.60;;;;;;5074193;28;20046;-61
2022/07/28 00:24:11;;;;;;;1.92;0.40;;;16.10;73.60;;;;;;5077277;28;20031;-61
2022/07/28 00:26:37;;;;;;;1.35;0.40;;;16.10;73.50;;;;;;5077111;28;20028;-62
2022/07/28 00:29:03;;;;;;;2.33;0.50;;;16.10;73.50;;;;;;5073124;28;20016;-61
2022/07/28 00:31:29;;;;;;;1.05;0.43;;;16.10;73.50;;;;;;5074809;28;20056;-61
2022/07/28 00:33:55;;;;;;;0.63;0.40;;;16.10;73.50;;;;;;5071710;28;20053;-61
2022/07/28 00:36:20;;;;;;;0.95;0.38;;;16.10;73.40;;;;;;5075059;28;20044;-61
2022/07/28 00:38:46;;;;;;;2.03;0.50;;;16.10;73.50;;;;;;5060767;28;20054;-61
2022/07/28 00:41:12;;;;;;;1.00;0.40;;;16.10;73.80;;;;;;5075120;28;20433;-61
2022/07/28 00:43:46;;;;;;;1.73;0.60;;;16.10;73.90;;;;;;5074724;28;20020;-61
2022/07/28 00:46:13;;;;;;;2.40;0.40;;;16.10;74.10;;;;;;5069764;28;20074;-61
2022/07/28 00:48:44;;;;;;;2.00;0.60;;;16.00;74.30;;;;;;5060157;28;20071;-61
2022/07/28 00:51:10;;;;;;;1.70;0.40;;;16.00;74.40;;;;;;5070152;28;20023;-61
2022/07/28 00:53:36;;;;;;;1.02;0.40;;;15.90;74.40;;;;;;5060842;28;20385;-61
2022/07/28 00:56:03;;;;;;;1.30;0.60;;;15.90;74.50;;;;;;5074028;28;20426;-61
2022/07/28 00:58:29;;;;;;;0.77;0.40;;;15.90;74.70;;;;;;5073602;28;20561;-61
2022/07/28 01:00:55;;;;;;;1.05;0.43;;;15.80;74.70;;;;;;5073668;28;20068;-61
2022/07/28 01:03:21;;;;;;;2.05;0.40;;;15.80;74.90;;;;;;5073400;28;20021;-61
2022/07/28 01:06:15;;;;;;;0.63;0.40;;;15.80;75.00;;;;;;5073373;28;20048;-61
2022/07/28 01:08:56;;;;;;;2.63;0.45;;;15.80;75.00;;;;;;5072777;28;20086;-61
2022/07/28 01:11:30;;;;;;;3.22;0.50;;;15.70;75.10;;;;;;5072744;28;20048;-61
2022/07/28 01:14:09;;;;;;;2.00;0.60;;;15.70;75.30;;;;;;5074811;28;20025;-61
2022/07/28 01:16:44;;;;;;;0.47;0.35;;;15.60;75.30;;;;;;5072631;28;20127;-61
2022/07/28 01:19:33;;;;;;;2.03;0.50;;;15.60;75.40;;;;;;5069672;28;20056;-61
2022/07/28 01:22:00;;;;;;;2.33;0.60;;;15.60;75.50;;;;;;5062814;28;20070;-61
2022/07/28 01:24:39;;;;;;;1.80;0.40;;;15.50;75.90;;;;;;5058260;28;20048;-61
2022/07/28 01:27:09;;;;;;;1.70;0.45;;;15.50;75.90;;;;;;5082739;28;20052;-61
2022/07/28 01:30:01;;;;;;;2.67;0.68;;;15.40;76.20;;;;;;5071823;28;20128;-61
2022/07/28 01:32:44;;;;;;;0.90;0.43;;;15.40;76.30;;;;;;5069327;28;20024;-61
2022/07/28 01:35:19;;;;;;;1.67;0.40;;;15.40;76.50;;;;;;5060920;28;20040;-61
2022/07/28 01:37:48;;;;;;;1.67;0.40;;;15.30;76.50;;;;;;5059517;28;20038;-61
2022/07/28 01:40:18;;;;;;;1.65;0.55;;;15.30;76.80;;;;;;5069749;28;20025;-61
2022/07/28 01:42:51;;;;;;;1.27;0.40;;;15.20;77.00;;;;;;5082440;28;20020;-61
2022/07/28 01:45:18;;;;;;;1.60;0.60;;;15.20;77.20;;;;;;5072325;28;20028;-61
2022/07/28 01:47:46;;;;;;;1.08;0.45;;;15.10;77.50;;;;;;5062498;28;20392;-61
2022/07/28 01:50:14;;;;;;;1.42;0.30;;;15.10;77.60;;;;;;5053829;28;20024;-61
2022/07/28 01:52:43;;;;;;;1.42;0.50;;;15.00;77.50;;;;;;5069190;28;20025;-61
2022/07/28 01:55:11;;;;;;;1.70;0.70;;;15.00;77.60;;;;;;5082326;28;20029;-61
2022/07/28 01:57:37;;;;;;;1.95;0.60;;;15.00;77.60;;;;;;5054036;28;20025;-61
2022/07/28 02:00:11;;;;;;;3.55;0.60;;;15.00;77.80;;;;;;5053883;28;20052;-61
2022/07/28 02:02:38;;;;;;;1.88;0.50;;;15.00;78.00;;;;;;5070194;28;20057;-61
2022/07/28 02:05:05;;;;;;;3.25;0.80;;;14.90;78.60;;;;;;5067760;28;20029;-61
2022/07/28 02:07:32;;;;;;;3.28;0.90;;;14.90;78.10;;;;;;5080294;28;20031;-61
2022/07/28 02:09:59;;;;;;;3.05;0.60;;;14.90;78.30;;;;;;5061162;28;20650;-61
2022/07/28 02:12:26;;;;;;;2.65;0.60;;;14.90;78.50;;;;;;5060121;28;20454;-61
2022/07/28 02:14:53;;;;;;;1.58;0.50;;;14.80;78.40;;;;;;5054578;28;20017;-61
2022/07/28 02:17:24;;;;;;;2.13;0.40;;;14.80;78.60;;;;;;5067355;28;20021;-61
2022/07/28 02:19:51;;;;;;;1.90;0.43;;;14.80;78.70;;;;;;5061429;28;20019;-61
2022/07/28 02:22:17;;;;;;;1.30;0.40;;;14.80;78.60;;;;;;5072802;28;20158;-61
2022/07/28 02:24:44;;;;;;;1.30;0.50;;;14.80;78.70;;;;;;5053419;28;20104;-61
2022/07/28 02:27:45;;;;;;;2.67;0.70;;;14.80;78.60;;;;;;5071589;28;20024;-61
2022/07/28 02:30:23;;;;;;;1.08;0.40;;;14.80;78.50;;;;;;5067892;28;20029;-61
2022/07/28 02:32:58;;;;;;;3.22;0.57;;;14.80;78.60;;;;;;5053214;28;20389;-61
2022/07/28 02:35:26;;;;;;;2.35;1.15;;;14.70;78.70;;;;;;5060023;28;20062;-61
2022/07/28 02:37:58;;;;;;;4.22;0.63;;;14.80;78.90;;;;;;5071471;28;20024;-61
2022/07/28 02:40:30;;;;;;;1.58;0.73;;;14.70;79.00;;;;;;5068315;28;20370;-61
2022/07/28 02:42:57;;;;;;;1.92;0.43;;;14.70;79.40;;;;;;5081346;28;20028;-61
2022/07/28 02:45:25;;;;;;;3.05;0.70;;;14.60;79.60;;;;;;5077818;28;20021;-61
2022/07/28 02:47:57;;;;;;;2.83;0.60;;;14.70;79.80;;;;;;5067632;28;20025;-61
2022/07/28 02:50:26;;;;;;;5.68;0.80;;;14.70;80.00;;;;;;5063885;28;20016;-61
2022/07/28 02:52:55;;;;;;;3.47;0.50;;;14.60;80.20;;;;;;5054796;28;20013;-61
2022/07/28 02:55:21;;;;;;;;;;;14.60;80.40;;;;;;5068166;28;20032;-61
2022/07/28 02:57:47;;;;;;;3.63;1.15;;;14.50;80.40;;;;;;5053910;28;20296;-61
2022/07/28 03:00:14;;;;;;;3.28;0.95;;;14.50;80.80;;;;;;5069182;28;20049;-61
2022/07/28 03:02:45;;;;;;;2.30;0.80;;;14.50;81.20;;;;;;5059045;28;20043;-61
2022/07/28 03:05:12;;;;;;;3.38;0.68;;;14.50;81.50;;;;;;5058619;28;20392;-61
2022/07/28 03:07:38;;;;;;;4.25;0.73;;;14.50;81.60;;;;;;5067688;28;20048;-61
2022/07/28 03:10:04;;;;;;;2.17;0.88;;;14.40;81.60;;;;;;5054297;28;20064;-61
2022/07/28 03:12:30;;;;;;;1.75;0.70;;;14.50;81.60;;;;;;5053872;28;20021;-61
2022/07/28 03:14:55;;;;;;;2.78;0.75;;;14.50;81.50;;;;;;5054890;28;20029;-61
2022/07/28 03:17:21;;;;;;;2.47;0.70;;;14.50;81.70;;;;;;5060595;28;20051;-61
2022/07/28 03:19:47;;;;;;;1.95;0.68;;;14.50;81.90;;;;;;5063360;28;20017;-61
2022/07/28 03:22:13;;;;;;;3.20;0.73;;;14.40;82.00;;;;;;5072411;28;20052;-61
2022/07/28 03:24:46;;;;;;;2.45;0.70;;;14.40;82.00;;;;;;5069847;28;20476;-61
2022/07/28 03:27:30;;;;;;;1.83;0.70;;;14.40;82.10;;;;;;5066066;28;20021;-61
2022/07/28 03:30:14;;;;;;;2.70;0.85;;;14.40;82.20;;;;;;5057536;28;20033;-61
2022/07/28 03:32:52;;;;;;;3.75;1.00;;;14.40;82.20;;;;;;5065142;28;20074;-61
2022/07/28 03:38:14;;;;;;;2.80;0.80;;;14.30;82.40;;;;;;5056113;28;20040;-61
2022/07/28 03:40:41;;;;;;;1.58;0.63;;;14.30;82.40;;;;;;5069616;28;20104;-61
2022/07/28 03:43:09;;;;;;;2.47;0.82;;;14.30;82.30;;;;;;5068402;28;20021;-61
2022/07/28 03:45:36;;;;;;;2.80;0.90;;;14.30;82.30;;;;;;5065023;28;20094;-61
2022/07/28 03:48:03;;;;;;;1.73;0.70;;;14.30;82.30;;;;;;5067270;28;20021;-61
2022/07/28 03:50:30;;;;;;;4.15;0.70;;;14.30;82.30;;;;;;5082266;28;20027;-61
2022/07/28 03:52:58;;;;;;;4.25;0.90;;;14.30;82.60;;;;;;5065771;28;20056;-61
2022/07/28 03:55:25;;;;;;;2.00;0.70;;;14.20;83.10;;;;;;5070408;28;20380;-61
2022/07/28 03:57:50;;;;;;;2.25;0.68;;;14.20;82.80;;;;;;5059169;28;20067;-61
2022/07/28 04:00:16;;;;;;;2.17;0.80;;;14.20;83.00;;;;;;5062502;28;20044;-61
2022/07/28 04:02:42;;;;;;;2.28;0.65;;;14.20;83.10;;;;;;5065351;28;20376;-61
2022/07/28 04:05:13;;;;;;;3.17;0.50;;;14.20;83.10;;;;;;5065506;28;20028;-61
2022/07/28 04:07:39;;;;;;;2.13;0.80;;;14.20;83.10;;;;;;5070251;28;20070;-61
2022/07/28 04:10:12;;;;;;;2.20;0.68;;;14.20;83.10;;;;;;5068374;28;20232;-61
2022/07/28 04:12:47;;;;;;;1.48;0.80;;;14.20;83.10;;;;;;5071154;28;20102;-61
2022/07/28 04:15:13;;;;;;;2.40;0.60;;;14.20;83.10;;;;;;5071242;28;20032;-61
2022/07/28 04:17:43;;;;;;;1.90;0.60;;;14.20;83.20;;;;;;5077253;28;20018;-61
2022/07/28 04:20:09;;;;;;;2.95;1.13;;;14.20;83.20;;;;;;5068774;28;20025;-61
2022/07/28 04:22:35;;;;;;;2.40;0.63;;;14.20;83.20;;;;;;5072211;28;20173;-61
2022/07/28 04:25:01;;;;;;;2.05;0.70;;;14.20;83.30;;;;;;5056440;28;20017;-61
2022/07/28 04:27:35;;;;;;;1.85;0.80;;;14.20;83.30;;;;;;5075074;28;20495;-61
2022/07/28 04:30:02;;;;;;;2.60;1.08;;;14.20;83.50;;;;;;5074893;28;20959;-61
2022/07/28 04:32:28;;;;;;;1.08;0.70;;;14.10;83.50;;;;;;5074043;28;20116;-61
2022/07/28 04:34:53;;;;;;;2.65;0.70;;;14.10;83.60;;;;;;5074364;28;20104;-61
2022/07/28 04:37:19;;;;;;;1.42;0.70;;;14.10;83.80;;;;;;5074813;28;20021;-61
2022/07/28 04:39:45;;;;;;;3.10;0.73;;;14.10;84.00;;;;;;5073347;28;20047;-61
2022/07/28 04:42:10;;;;;;;1.85;0.82;;;14.10;84.20;;;;;;5070229;28;20170;-61
2022/07/28 04:44:41;;;;;;;3.03;1.05;;;14.10;84.30;;;;;;5059114;28;20021;-61
2022/07/28 04:47:07;;;;;;;4.05;0.85;;;14.10;84.60;;;;;;5063384;28;20028;-60
2022/07/28 04:49:33;;;;;;;5.30;1.20;;;14.10;84.90;;;;;;5056429;28;20017;-61
2022/07/28 04:51:59;;;;;;;2.58;1.10;;;14.10;85.00;;;;;;5070915;28;20036;-61
2022/07/28 04:54:25;;;;;;;2.70;0.98;;;14.10;85.20;;;;;;5056891;28;20021;-61
2022/07/28 04:56:51;;;;;;;2.25;0.90;;;14.10;85.50;;;;;;5066315;28;20484;-61
2022/07/28 04:59:17;;;;;;;3.55;1.10;;;14.00;85.50;;;;;;5056642;28;20051;-61
2022/07/28 05:01:43;;;;;;;4.93;1.02;;;14.00;85.50;;;;;;5072455;28;20044;-61
2022/07/28 05:04:09;;;;;;;2.15;0.82;;;14.10;85.60;;;;;;5074491;28;20469;-61
2022/07/28 05:06:34;;;;;;;3.05;1.00;;;14.10;85.60;;;;;;5066864;28;20032;-61
2022/07/28 05:09:01;;;;;;;1.88;0.95;;;14.10;85.80;;;;;;5059198;28;20074;-61
2022/07/28 05:11:26;;;;;;;2.75;0.90;;;14.10;86.10;;;;;;5056708;28;20063;-61
2022/07/28 05:13:52;;;;;;;3.35;0.80;;;14.10;86.10;;;;;;5072661;28;20052;-61
2022/07/28 05:16:18;;;;;;;3.50;1.02;;;14.20;86.40;;;;;;5055445;28;20090;-61
2022/07/28 05:18:44;;;;;;;2.25;1.00;;;14.20;86.60;;;;;;5070922;28;20020;-61
2022/07/28 05:21:10;;;;;;;2.63;1.08;;;14.20;86.80;;;;;;5069354;28;20021;-61
2022/07/28 05:23:35;;;;;;;2.88;1.30;;;14.20;87.00;;;;;;5069986;28;20520;-61
2022/07/28 05:26:09;;;;;;;4.55;1.10;;;14.20;87.10;;;;;;5070234;28;20457;-61
2022/07/28 05:28:35;;;;;;;3.30;1.00;;;14.20;87.10;;;;;;5069056;28;20111;-61
2022/07/28 05:31:03;;;;;;;4.22;1.30;;;14.20;87.20;;;;;;5054969;28;20163;-61
2022/07/28 05:33:33;;;;;;;3.47;1.30;;;14.30;87.30;;;;;;5070982;28;20108;-61
2022/07/28 05:35:59;;;;;;;5.50;1.42;;;14.30;87.40;;;;;;5053894;28;20032;-61
2022/07/28 05:38:26;;;;;;;3.60;1.20;;;14.30;87.30;;;;;;5060258;28;20461;-61
2022/07/28 05:40:52;;;;;;;2.17;1.17;;;14.30;87.30;;;;;;5073032;28;20020;-61
2022/07/28 05:43:19;;;;;;;4.07;1.30;;;14.40;87.30;;;;;;5053682;28;20404;-61
2022/07/28 05:45:45;;;;;;;3.40;0.98;;;14.40;87.20;;;;;;5055128;28;20032;-61
2022/07/28 05:48:11;;;;;;;4.88;1.20;;;14.40;87.00;;;;;;5069833;28;20044;-61
2022/07/28 05:50:37;;;;;;;3.20;0.82;;;14.50;87.00;;;;;;5069662;28;20435;-61
2022/07/28 05:53:03;;;;;;;3.58;1.35;;;14.50;86.90;;;;;;5060906;28;20032;-61
2022/07/28 05:55:28;;;;;;;3.60;0.93;;;14.50;86.70;;;;;;5060611;28;20021;-61
2022/07/28 05:57:54;;;;;;;6.97;1.85;;;14.60;86.70;;;;;;5068683;28;20029;-61
2022/07/28 06:00:21;;;;;;;3.72;1.13;;;14.70;86.60;;;;;;5063262;28;20076;-61
2022/07/28 06:02:48;;;;;;;3.53;1.50;;;14.70;86.50;;;;;;5066802;28;20023;-61
2022/07/28 06:05:22;;;;;;;3.45;1.20;;;14.80;86.40;;;;;;5059991;28;20037;-62
2022/07/28 06:07:49;;;;;;;2.30;1.10;;;14.80;86.10;;;;;;5074329;28;20071;-60
2022/07/28 06:10:17;;;;;;;2.45;0.90;;;14.80;85.90;;;;;;5054317;28;20059;-61
2022/07/28 06:12:48;;;;;;;3.88;1.00;;;14.90;85.80;;;;;;5053949;28;20029;-60
2022/07/28 06:15:25;;;;;;;3.28;0.98;;;15.00;85.70;;;;;;5072052;28;20499;-61
2022/07/28 06:17:54;;;;;;;3.72;1.10;;;15.00;85.80;;;;;;5067782;28;20017;-60
2022/07/28 06:20:21;;;;;;;4.55;1.08;;;15.10;85.70;;;;;;5068030;28;20104;-60
2022/07/28 06:22:49;;;;;;;2.05;0.95;;;15.10;85.60;;;;;;5061158;28;20017;-61
2022/07/28 06:25:16;;;;;;;3.45;1.20;;;15.20;85.30;;;;;;5069076;28;20056;-61
2022/07/28 06:27:41;;;;;;;1.92;0.73;;;15.30;84.30;;;;;;5063903;28;20108;-61
2022/07/28 06:30:08;;;;;;;6.80;1.20;;;15.30;83.90;;;;;;5058866;28;20441;-61
2022/07/28 06:32:33;;;;;;;2.65;0.75;;;15.30;82.90;;;;;;5059057;28;20025;-61
2022/07/28 06:34:59;;;;;;;5.38;0.90;;;15.40;82.90;;;;;;5063783;28;20101;-61
2022/07/28 06:37:24;;;;;;;4.25;0.90;;;15.40;82.90;;;;;;5067020;28;20021;-61
2022/07/28 06:39:50;;;;;;;2.95;0.70;;;15.40;82.50;;;;;;5062205;28;20024;-61
2022/07/28 06:42:15;;;;;;;3.53;0.90;;;15.50;82.40;;;;;;5065780;28;20477;-60
2022/07/28 06:44:41;;;;;;;2.72;0.80;;;15.60;83.00;;;;;;5065256;28;20564;-61
2022/07/28 06:47:07;;;;;;;1.73;0.63;;;15.70;82.30;;;;;;5061098;28;20032;-61
2022/07/28 06:49:33;;;;;;;4.03;0.73;;;15.80;82.30;;;;;;5065832;28;20024;-61
2022/07/28 06:51:58;;;;;;;2.58;0.57;;;15.80;81.60;;;;;;5066997;28;20028;-61
2022/07/28 06:54:24;;;;;;;2.60;0.50;;;15.80;81.20;;;;;;5063361;28;20481;-61
2022/07/28 06:56:50;;;;;;;2.90;0.75;;;16.00;81.70;;;;;;5067119;28;20024;-61
2022/07/28 06:59:16;;;;;;;1.98;0.60;;;16.10;81.00;;;;;;5059596;28;20490;-61
2022/07/28 07:01:41;;;;;;;2.95;0.60;;;16.20;81.00;;;;;;5064681;28;20068;-61
2022/07/28 07:04:07;;;;;;;5.55;0.93;;;16.30;80.60;;;;;;5062099;28;20028;-61
2022/07/28 07:06:33;;;;;;;3.05;0.60;;;16.30;79.90;;;;;;5085954;28;20507;-61
2022/07/28 07:08:59;;;;;;;2.35;0.70;;;16.40;79.80;;;;;;5069706;28;20070;-60
2022/07/28 07:11:25;;;;;;;4.82;0.90;;;16.50;79.40;;;;;;5078857;28;20447;-61
2022/07/28 07:13:51;;;;;;;7.55;0.80;;;16.50;79.00;;;;;;5072114;28;20016;-61
2022/07/28 07:16:17;;;;;;;3.08;0.90;;;16.60;78.40;;;;;;5075182;28;20031;-61
2022/07/28 07:18:43;;;;;;;1.52;0.63;;;16.60;78.50;;;;;;5077793;28;20131;-61
2022/07/28 07:21:08;;;;;;;2.72;0.65;;;16.70;78.40;;;;;;5071262;28;20079;-61
2022/07/28 07:23:34;;;;;;;1.48;0.55;;;16.70;77.90;;;;;;5071487;28;20024;-61
2022/07/28 07:26:01;;;;;;;4.00;0.70;;;16.70;77.80;;;;;;5069410;28;20036;-61
2022/07/28 07:28:26;;;;;;;1.52;0.52;;;16.80;77.50;;;;;;5078286;28;20472;-61
2022/07/28 07:30:52;;;;;;;2.97;0.75;;;16.80;77.00;;;;;;5072673;28;20025;-61
2022/07/28 07:33:17;;;;;;;2.15;0.73;;;16.80;76.70;;;;;;5075447;28;20383;-61
2022/07/28 07:35:43;;;;;;;1.40;0.40;;;16.90;76.60;;;;;;5068953;28;20081;-61
2022/07/28 07:38:09;;;;;;;1.52;0.50;;;16.90;76.40;;;;;;5088571;28;20361;-61
2022/07/28 07:40:34;;;;;;;2.05;0.60;;;17.00;75.20;;;;;;5069445;28;20036;-61
2022/07/28 07:43:00;;;;;;;2.35;0.40;;;17.00;74.70;;;;;;5075002;28;20028;-61
2022/07/28 07:45:25;;;;;;;3.75;0.60;;;17.10;74.70;;;;;;5076481;28;20036;-61
2022/07/28 07:47:51;;;;;;;3.05;0.50;;;17.20;74.60;;;;;;5075457;28;20036;-61
2022/07/28 07:50:17;;;;;;;2.25;0.50;;;17.30;74.60;;;;;;5074074;28;20029;-61
2022/07/28 07:52:42;;;;;;;1.23;0.43;;;17.30;74.90;;;;;;5069673;28;20033;-61
2022/07/28 07:55:08;;;;;;;2.63;0.52;;;17.40;75.30;;;;;;5071301;28;20029;-61
2022/07/28 07:57:34;;;;;;;3.40;0.50;;;17.50;75.30;;;;;;5064189;28;20021;-61
2022/07/28 07:59:59;;;;;;;0.98;0.35;;;17.60;74.40;;;;;;5059443;28;20076;-61
2022/07/28 08:02:25;;;;;;;2.90;0.30;;;17.70;73.50;;;;;;5070031;28;20067;-61
2022/07/28 08:04:50;;;;;;;2.38;0.50;;;17.80;72.50;;;;;;5069057;28;20028;-61
2022/07/28 08:07:16;;;;;;;2.25;0.60;;;17.80;71.20;;;;;;5068434;28;20065;-61
2022/07/28 08:09:42;;;;;;;2.08;0.40;;;17.90;71.40;;;;;;5062753;28;20032;-61
2022/07/28 08:12:07;;;;;;;5.68;0.60;;;17.90;71.40;;;;;;5068917;28;20039;-61
2022/07/28 08:14:33;;;;;;;3.20;0.43;;;18.00;70.30;;;;;;5067996;28;20546;-61
2022/07/28 08:16:59;;;;;;;2.67;0.50;;;18.00;69.30;;;;;;5062285;28;20248;-61
2022/07/28 08:19:25;;;;;;;1.90;0.50;;;18.10;69.50;;;;;;5067814;28;20024;-60
2022/07/28 08:21:50;;;;;;;2.70;0.50;;;18.20;69.50;;;;;;5061771;28;20020;-61
2022/07/28 08:24:16;;;;;;;4.55;0.40;;;18.20;69.50;;;;;;5066218;28;20436;-60
2022/07/28 08:26:42;;;;;;;4.00;0.50;;;18.30;69.20;;;;;;5074247;28;20086;-61
2022/07/28 08:29:08;;;;;;;0.98;0.30;;;18.30;69.20;;;;;;5071322;28;20020;-60
2022/07/28 08:31:33;;;;;;;2.10;0.43;;;18.30;69.10;;;;;;5074718;28;20013;-61
2022/07/28 08:34:00;;;;;;;2.80;0.40;;;18.30;68.40;;;;;;5073827;28;20024;-61
2022/07/28 08:36:25;;;;;;;2.63;0.60;;;18.30;68.50;;;;;;5068979;28;20032;-61
2022/07/28 08:38:51;;;;;;;2.40;0.40;;;18.30;68.70;;;;;;5064862;28;20016;-60
2022/07/28 08:41:25;;;;;;;2.65;0.50;;;18.30;68.80;;;;;;5058798;28;20059;-61
2022/07/28 08:43:53;;;;;;;1.42;0.40;;;18.40;68.50;;;;;;5060762;28;20017;-61
2022/07/28 08:46:19;;;;;;;1.27;0.30;;;18.50;68.60;;;;;;5065993;28;20053;-61
2022/07/28 08:48:46;;;;;;;2.78;0.40;;;18.60;68.40;;;;;;5065947;28;20071;-61
2022/07/28 08:51:12;;;;;;;2.10;0.30;;;18.70;68.30;;;;;;5077290;28;20021;-60
2022/07/28 08:53:39;;;;;;;1.35;0.40;;;18.70;68.00;;;;;;5067601;28;20502;-60
2022/07/28 08:56:07;;;;;;;2.15;0.40;;;18.90;68.40;;;;;;5074064;28;20387;-61
2022/07/28 08:58:34;;;;;;;2.28;0.50;;;19.00;66.50;;;;;;5090517;28;20024;-60
2022/07/28 09:01:00;;;;;;;0.93;0.30;;;19.00;66.40;;;;;;5064941;28;20091;-61
2022/07/28 09:03:27;;;;;;;1.77;0.40;;;19.00;66.50;;;;;;5063173;28;20053;-61
2022/07/28 09:05:53;;;;;;;1.35;0.55;;;19.10;66.70;;;;;;5058140;28;20104;-60
2022/07/28 09:08:19;;;;;;;1.23;0.40;;;19.20;66.60;;;;;;5066703;28;20032;-61
2022/07/28 09:10:46;;;;;;;1.27;0.43;;;19.20;65.90;;;;;;5075578;28;20044;-61
2022/07/28 09:13:13;;;;;;;2.90;0.50;;;19.30;65.70;;;;;;5069586;28;20094;-61
2022/07/28 09:15:39;;;;;;;1.70;0.50;;;19.40;65.60;;;;;;5073181;28;20077;-61
2022/07/28 09:18:04;;;;;;;2.67;0.40;;;19.40;65.00;;;;;;5072224;28;20029;-61
2022/07/28 09:20:30;;;;;;;2.28;0.40;;;19.40;64.50;;;;;;5073853;28;20108;-60
2022/07/28 09:22:58;;;;;;;1.23;0.40;;;19.50;64.50;;;;;;5069586;28;20024;-61
2022/07/28 09:25:25;;;;;;;1.38;0.40;;;19.50;64.50;;;;;;5077111;28;20023;-61
2022/07/28 09:27:51;;;;;;;1.50;0.40;;;19.60;64.50;;;;;;5063384;28;20112;-62
2022/07/28 09:30:30;;;;;;;1.80;0.40;;;19.70;64.00;;;;;;5058944;28;20108;-61
2022/07/28 09:33:19;;;;;;;1.90;0.40;;;19.70;63.60;;;;;;5064154;28;20481;-60
2022/07/28 09:35:50;;;;;;;;;;;19.80;63.80;;;;;;5076792;28;20036;-60
2022/07/28 09:38:16;;;;;;;1.95;0.50;;;19.80;63.50;;;;;;5068027;28;20364;-61
2022/07/28 09:41:02;;;;;;;1.92;0.50;;;19.80;63.60;;;;;;5070589;28;20078;-61
2022/07/28 09:43:44;;;;;;;4.90;0.68;;;19.90;63.40;;;;;;5059489;28;20036;-60
2022/07/28 09:46:15;;;;;;;2.05;0.50;;;20.00;63.10;;;;;;5053257;28;20028;-61
2022/07/28 09:48:58;;;;;;;2.97;0.60;;;20.10;62.90;;;;;;5069446;28;20033;-61
2022/07/28 09:51:29;;;;;;;1.30;0.35;;;20.20;63.10;;;;;;5067338;28;20046;-61
2022/07/28 09:54:06;;;;;;;2.50;0.45;;;20.20;62.60;;;;;;5077898;28;20031;-61
2022/07/28 09:56:32;;;;;;;2.13;0.40;;;20.30;62.30;;;;;;5070481;28;20036;-61
2022/07/28 09:58:58;;;;;;;1.33;0.65;;;20.40;62.20;;;;;;5069311;28;20081;-61
2022/07/28 10:01:25;;;;;;;1.58;0.50;;;20.50;62.00;;;;;;5080669;28;20432;-61
2022/07/28 10:03:54;;;;;;;1.08;0.30;;;20.60;61.40;;;;;;5054706;28;20044;-61
2022/07/28 10:06:24;;;;;;;1.33;0.40;;;20.70;60.50;;;;;;5069608;28;20047;-61
2022/07/28 10:08:51;;;;;;;1.85;0.40;;;20.80;60.30;;;;;;5064464;28;20512;-61
2022/07/28 10:11:20;;;;;;;2.92;0.40;;;20.80;59.20;;;;;;5063998;28;20025;-61
2022/07/28 10:14:05;;;;;;;1.33;0.45;;;20.90;59.60;;;;;;5066332;28;20024;-61
2022/07/28 10:16:41;;;;;;;1.52;0.60;;;21.00;59.60;;;;;;5064840;28;20039;-61
2022/07/28 10:19:07;;;;;;;1.45;0.35;;;21.00;59.50;;;;;;5069844;28;20020;-61
2022/07/28 10:21:39;;;;;;;2.05;0.40;;;21.00;58.90;;;;;;5067750;28;20025;-61
2022/07/28 10:24:19;;;;;;;2.28;0.40;;;21.10;59.20;;;;;;5069874;28;20480;-61
2022/07/28 10:26:46;;;;;;;1.42;0.35;;;21.20;58.80;;;;;;5074145;28;20036;-61
2022/07/28 10:29:17;;;;;;;0.95;0.50;;;21.30;58.90;;;;;;5059196;28;20446;-61
2022/07/28 10:31:52;;;;;;;1.67;0.40;;;21.30;58.40;;;;;;5062877;28;20020;-61
2022/07/28 10:34:23;;;;;;;3.20;0.45;;;21.40;57.70;;;;;;5065843;28;20059;-61
2022/07/28 10:36:51;;;;;;;2.10;0.30;;;21.50;57.20;;;;;;5065497;28;20080;-61
2022/07/28 10:39:22;;;;;;;1.83;0.60;;;21.60;57.00;;;;;;5070820;28;20099;-61
2022/07/28 10:41:48;;;;;;;3.17;0.40;;;21.70;56.80;;;;;;5058837;28;20017;-61
2022/07/28 10:44:17;;;;;;;2.03;0.32;;;21.80;55.50;;;;;;5074365;28;20024;-61
2022/07/28 10:46:44;;;;;;;1.73;0.40;;;21.90;55.70;;;;;;5083501;28;20056;-61
2022/07/28 10:49:11;;;;;;;1.83;0.50;;;22.00;55.50;;;;;;5064195;28;20028;-61
2022/07/28 10:51:40;;;;;;;1.50;0.40;;;22.10;55.50;;;;;;5061126;28;20070;-61
2022/07/28 10:54:21;;;;;;;1.25;0.28;;;22.20;55.20;;;;;;5051189;28;20086;-61
2022/07/28 10:56:50;;;;;;;2.08;0.32;;;22.30;54.60;;;;;;5072138;28;20033;-61
2022/07/28 10:59:45;;;;;;;2.00;0.50;;;22.50;54.60;;;;;;5065223;28;20025;-61
2022/07/28 11:02:41;;;;;;;1.83;0.40;;;22.50;53.70;;;;;;5063680;28;20032;-61
2022/07/28 11:05:26;;;;;;;1.15;0.30;;;22.60;53.80;;;;;;5052131;28;20036;-61
2022/07/28 11:07:52;;;;;;;2.83;0.38;;;22.70;53.40;;;;;;5073073;28;20112;-61
2022/07/28 11:10:23;;;;;;;2.10;0.30;;;22.80;52.70;;;;;;5061656;28;20111;-61
2022/07/28 11:12:54;;;;;;;1.27;0.40;;;23.00;52.70;;;;;;5074348;28;20071;-61
2022/07/28 11:15:35;;;;;;;0.70;0.30;;;23.20;52.60;;;;;;5066989;28;20489;-61
2022/07/28 11:18:13;;;;;;;1.25;0.50;;;23.40;52.70;;;;;;5075851;28;20052;-61
2022/07/28 11:21:02;;;;;;;1.00;0.20;;;23.50;52.50;;;;;;5055912;28;20043;-61
2022/07/28 11:23:42;;;;;;;1.35;0.38;;;23.60;52.30;;;;;;5067999;28;20017;-61
2022/07/28 11:26:19;;;;;;;;;;;23.70;51.20;;;;;;5064788;28;20115;-61
2022/07/28 11:29:11;;;;;;;2.35;0.35;;;23.70;51.50;;;;;;5058612;28;20376;-61
2022/07/28 11:31:43;;;;;;;3.13;0.30;;;23.90;51.20;;;;;;5063129;28;20041;-61
2022/07/28 11:34:08;;;;;;;3.28;0.40;;;24.00;50.80;;;;;;5052200;28;20036;-61
2022/07/28 11:37:08;;;;;;;0.80;0.30;;;24.20;51.20;;;;;;5051937;28;20033;-61
2022/07/28 11:39:36;;;;;;;0.73;0.30;;;24.40;51.30;;;;;;5053571;28;20017;-61
2022/07/28 11:42:22;;;;;;;1.63;0.30;;;24.60;50.80;;;;;;5063610;28;20033;-61
2022/07/28 11:44:48;;;;;;;2.75;0.40;;;24.70;50.70;;;;;;5055681;28;20095;-61
2022/07/28 11:47:23;;;;;;;2.08;0.40;;;24.80;49.80;;;;;;5071188;28;20128;-61
2022/07/28 11:50:15;;;;;;;1.33;0.30;;;24.90;49.40;;;;;;5068812;28;20115;-61
2022/07/28 11:52:55;;;;;;;0.68;0.30;;;25.10;49.40;;;;;;5059703;28;20021;-61
2022/07/28 11:55:21;;;;;;;2.20;0.40;;;25.40;48.90;;;;;;5056171;28;20053;-61
2022/07/28 11:57:46;;;;;;;1.27;0.50;;;25.40;48.30;;;;;;5064581;28;20024;-61
2022/07/28 12:00:23;;;;;;;0.93;0.40;;;25.60;48.00;;;;;;5065289;28;20041;-61
2022/07/28 12:02:48;;;;;;;0.88;0.30;;;25.70;48.00;;;;;;5058104;28;20027;-61
2022/07/28 12:05:16;;;;;;;2.00;0.50;;;25.80;48.20;;;;;;5074876;28;20396;-61
2022/07/28 12:07:45;;;;;;;1.33;0.82;;;26.00;48.00;;;;;;5061067;28;20110;-62
2022/07/28 12:10:28;;;;;;;0.75;0.30;;;26.20;47.50;;;;;;5065420;28;20025;-61
2022/07/28 12:13:02;;;;;;;1.10;0.45;;;26.30;47.20;;;;;;5066919;28;20502;-61
2022/07/28 12:15:28;;;;;;;2.05;0.43;;;26.50;46.20;;;;;;5066345;28;20013;-61
2022/07/28 12:17:54;;;;;;;1.08;0.30;;;26.60;45.80;;;;;;5079121;28;20017;-61
2022/07/28 12:20:21;;;;;;;1.00;0.30;;;26.80;45.80;;;;;;5067951;28;20369;-61
2022/07/28 12:23:01;;;;;;;1.83;0.45;;;27.00;45.70;;;;;;5063380;28;20149;-61
2022/07/28 12:25:28;;;;;;;1.23;0.50;;;27.30;45.70;;;;;;5076224;28;20027;-61
2022/07/28 12:27:57;;;;;;;0.80;0.30;;;27.60;45.30;;;;;;5064337;28;20021;-61
2022/07/28 12:30:24;;;;;;;;;;;27.70;44.70;;;;;;5065748;28;20024;-61
2022/07/28 12:32:50;;;;;;;1.27;0.40;;;27.80;44.20;;;;;;5062622;28;20003;-61
2022/07/28 12:35:16;;;;;;;2.13;0.35;;;27.90;44.00;;;;;;5060038;28;20549;-61
2022/07/28 12:37:46;;;;;;;1.67;0.63;;;28.00;43.60;;;;;;5077437;28;20028;-61
2022/07/28 12:40:14;;;;;;;1.23;0.43;;;28.00;43.40;;;;;;5062076;28;20120;-61
2022/07/28 12:42:39;;;;;;;0.95;0.40;;;28.10;43.60;;;;;;5056908;28;20021;-61
2022/07/28 12:45:08;;;;;;;1.92;0.35;;;28.20;44.20;;;;;;5057987;28;20023;-61
2022/07/28 12:47:34;;;;;;;;;;;28.30;43.30;;;;;;5056887;28;20029;-61
2022/07/28 12:50:09;;;;;;;4.30;0.50;;;28.30;43.20;;;;;;5085689;28;19912;-61
2022/07/28 12:52:35;;;;;;;2.75;0.40;;;28.40;43.80;;;;;;5065090;28;20515;-61
2022/07/28 12:55:18;;;;;;;1.75;0.50;;;28.60;44.10;;;;;;5073922;28;20024;-62
2022/07/28 12:57:46;;;;;;;3.17;0.50;;;28.80;43.90;;;;;;5070103;28;20388;-61
2022/07/28 13:00:12;;;;;;;1.58;0.60;;;29.00;43.10;;;;;;5057035;28;20077;-61
2022/07/28 13:02:39;;;;;;;3.13;0.68;;;29.00;42.80;;;;;;5058399;28;20111;-61